Time;durP1;ratioP1;P1;durP2;ratioP2;P2;SDS_P1;SDS_P2;PMS_P1;PMS_P2;Temp;Humidity;BMP_temperature;BMP_pressure;BME280_temperature;BME280_humidity;BME280_pressure;Samples;Min_cycle;Max_cycle;Signal;HPM_P1;HPM_P2
2022/06/17 00:02:06;;;;;;;10.65;7.70;;;15.70;99.90;;;;;;5038342;28;20044;-83
2022/06/17 00:04:32;;;;;;;11.35;7.13;;;15.60;99.90;;;;;;5038455;28;20447;-83
2022/06/17 00:07:01;;;;;;;12.93;8.75;;;15.60;99.90;;;;;;5039291;28;20379;-83
2022/06/17 00:09:30;;;;;;;11.10;7.97;;;15.50;99.90;;;;;;5037590;28;20482;-83
2022/06/17 00:11:56;;;;;;;12.15;8.32;;;15.50;99.90;;;;;;5054893;28;20048;-83
2022/06/17 00:14:25;;;;;;;11.50;6.93;;;15.50;99.90;;;;;;5055737;28;20037;-83
2022/06/17 00:16:50;;;;;;;10.02;7.05;;;15.50;99.90;;;;;;5038096;28;20039;-83
2022/06/17 00:19:18;;;;;;;10.38;6.90;;;15.40;99.90;;;;;;5054666;28;20032;-83
2022/06/17 00:21:47;;;;;;;10.32;7.55;;;15.50;99.90;;;;;;5054576;28;20044;-83
2022/06/17 00:24:20;;;;;;;11.13;5.90;;;15.40;99.90;;;;;;5055103;28;20048;-83
2022/06/17 00:26:46;;;;;;;9.90;6.90;;;15.30;99.90;;;;;;5037710;28;20032;-83
2022/06/17 00:29:13;;;;;;;11.38;5.03;;;15.30;99.90;;;;;;5053739;28;20059;-83
2022/06/17 00:31:40;;;;;;;11.40;6.22;;;15.30;99.90;;;;;;5038344;28;20492;-83
2022/06/17 00:34:06;;;;;;;10.95;6.75;;;15.20;99.90;;;;;;5037955;28;20490;-83
2022/06/17 00:36:32;;;;;;;11.32;5.80;;;15.20;99.90;;;;;;5054526;28;20040;-84
2022/06/17 00:38:58;;;;;;;11.25;7.22;;;15.10;99.90;;;;;;5054520;28;20510;-83
2022/06/17 00:41:36;;;;;;;13.88;7.43;;;15.10;99.90;;;;;;5053581;28;20075;-83
2022/06/17 00:44:21;;;;;;;12.35;7.10;;;15.10;99.90;;;;;;5038238;28;20537;-83
2022/06/17 00:46:53;;;;;;;15.85;7.93;;;15.10;99.90;;;;;;5037113;28;20044;-83
2022/06/17 00:49:40;;;;;;;27.33;7.28;;;15.00;99.90;;;;;;5054154;28;20107;-83
2022/06/17 00:52:16;;;;;;;13.88;7.50;;;14.90;99.90;;;;;;5037558;28;20123;-83
2022/06/17 00:54:47;;;;;;;11.95;6.75;;;14.90;99.90;;;;;;5038189;28;20048;-83
2022/06/17 00:57:18;;;;;;;9.77;7.03;;;14.90;99.90;;;;;;5054499;28;20079;-83
2022/06/17 01:00:19;;;;;;;10.00;7.90;;;14.90;99.90;;;;;;5036460;28;20533;-83
2022/06/17 01:02:58;;;;;;;10.88;5.40;;;14.90;99.90;;;;;;5053783;28;20049;-83
2022/06/17 01:05:32;;;;;;;10.27;8.10;;;14.80;99.90;;;;;;5053759;28;20536;-83
2022/06/17 01:08:03;;;;;;;11.15;8.73;;;14.80;99.90;;;;;;5053897;28;20118;-83
2022/06/17 01:10:30;;;;;;;10.38;6.32;;;14.80;99.90;;;;;;5035927;28;20043;-83
2022/06/17 01:12:59;;;;;;;11.13;7.97;;;14.70;99.90;;;;;;5036914;28;20166;-82
2022/06/17 01:15:28;;;;;;;10.38;5.95;;;14.70;99.90;;;;;;5054225;28;20048;-83
2022/06/17 01:17:55;;;;;;;9.73;7.28;;;14.60;99.90;;;;;;5036494;28;20048;-83
2022/06/17 01:20:22;;;;;;;10.88;5.95;;;14.60;99.90;;;;;;5053841;28;20082;-83
2022/06/17 01:22:51;;;;;;;9.63;5.75;;;14.60;99.90;;;;;;5036456;28;20039;-83
2022/06/17 01:25:29;;;;;;;10.27;7.95;;;14.60;99.90;;;;;;5037277;28;20067;-83
2022/06/17 01:27:58;;;;;;;10.52;8.80;;;14.60;99.90;;;;;;5036866;28;20143;-82
2022/06/17 01:30:28;;;;;;;12.20;8.55;;;14.60;99.90;;;;;;5036604;28;20466;-83
2022/06/17 01:32:57;;;;;;;10.05;6.38;;;14.60;99.90;;;;;;5053809;28;20503;-82
2022/06/17 01:35:28;;;;;;;12.32;8.80;;;14.60;99.90;;;;;;5053224;28;20075;-82
2022/06/17 01:37:55;;;;;;;15.60;10.38;;;14.60;99.90;;;;;;5053770;28;20033;-82
2022/06/17 01:40:21;;;;;;;12.93;7.80;;;14.60;99.90;;;;;;5036449;28;20039;-83
2022/06/17 01:42:48;;;;;;;12.65;9.57;;;14.50;99.90;;;;;;5036180;28;20078;-83
2022/06/17 01:45:14;;;;;;;11.18;9.77;;;14.50;99.90;;;;;;5053695;28;20049;-82
2022/06/17 01:47:43;;;;;;;14.40;7.68;;;14.50;99.90;;;;;;5052511;28;20044;-83
2022/06/17 01:50:19;;;;;;;12.55;9.77;;;14.50;99.90;;;;;;5036044;28;20052;-83
2022/06/17 01:53:05;;;;;;;11.55;8.82;;;14.40;99.90;;;;;;5054208;28;20051;-83
2022/06/17 01:55:40;;;;;;;11.65;9.05;;;14.50;99.90;;;;;;5052746;28;20082;-83
2022/06/17 01:58:20;;;;;;;12.60;6.53;;;14.40;99.90;;;;;;5053557;28;20289;-83
2022/06/17 02:00:45;;;;;;;13.02;9.48;;;14.40;99.90;;;;;;5051973;28;20033;-83
2022/06/17 02:03:21;;;;;;;11.52;6.60;;;14.40;99.90;;;;;;5036067;28;20098;-83
2022/06/17 02:05:51;;;;;;;13.88;9.77;;;14.40;99.90;;;;;;5036596;28;20049;-83
2022/06/17 02:08:17;;;;;;;13.10;9.90;;;14.40;99.90;;;;;;5052669;28;20074;-83
2022/06/17 02:10:45;;;;;;;23.65;10.02;;;14.40;99.90;;;;;;5052101;28;20076;-83
2022/06/17 02:13:14;;;;;;;14.00;6.97;;;14.40;99.90;;;;;;5052562;28;20119;-83
2022/06/17 02:15:42;;;;;;;15.70;9.73;;;14.40;99.90;;;;;;5036772;28;20029;-83
2022/06/17 02:18:13;;;;;;;13.68;9.75;;;14.40;99.90;;;;;;5052457;28;20043;-83
2022/06/17 02:20:40;;;;;;;12.85;10.13;;;14.50;99.90;;;;;;5052415;28;20036;-83
2022/06/17 02:23:07;;;;;;;11.93;8.07;;;14.50;99.90;;;;;;5035950;28;20090;-83
2022/06/17 02:25:43;;;;;;;13.65;9.68;;;14.50;99.90;;;;;;5052277;28;20059;-83
2022/06/17 02:28:09;;;;;;;13.35;10.10;;;14.50;99.90;;;;;;5053042;28;20127;-83
2022/06/17 02:30:36;;;;;;;13.75;9.98;;;14.50;99.90;;;;;;5051811;28;20041;-83
2022/06/17 02:33:05;;;;;;;12.27;9.90;;;14.50;99.90;;;;;;5052956;28;20132;-83
2022/06/17 02:35:40;;;;;;;13.90;8.18;;;14.50;99.90;;;;;;5053234;28;20032;-83
2022/06/17 02:38:06;;;;;;;13.25;9.98;;;14.50;99.90;;;;;;5052458;28;20401;-82
2022/06/17 02:40:39;;;;;;;11.02;7.63;;;14.50;99.90;;;;;;5052060;28;20497;-83
2022/06/17 02:43:11;;;;;;;17.00;11.18;;;14.50;99.90;;;;;;5035689;28;20032;-83
2022/06/17 02:45:42;;;;;;;12.60;10.20;;;14.50;99.90;;;;;;5052610;28;20047;-83
2022/06/17 02:48:20;;;;;;;11.82;6.95;;;14.50;99.90;;;;;;5035662;28;20063;-83
2022/06/17 02:50:46;;;;;;;10.30;8.27;;;14.40;99.90;;;;;;5051872;28;20045;-83
2022/06/17 02:53:12;;;;;;;11.68;8.80;;;14.30;99.90;;;;;;5053102;28;20040;-83
2022/06/17 02:55:42;;;;;;;11.15;8.13;;;14.30;99.90;;;;;;5052033;28;20089;-83
2022/06/17 02:58:10;;;;;;;12.63;9.88;;;14.30;99.90;;;;;;5036096;28;20497;-83
2022/06/17 03:00:36;;;;;;;13.65;7.47;;;14.30;99.90;;;;;;5051359;28;20123;-83
2022/06/17 03:03:05;;;;;;;14.23;11.18;;;14.20;99.90;;;;;;5035506;28;20123;-83
2022/06/17 03:05:35;;;;;;;13.35;8.43;;;14.30;99.90;;;;;;5052546;28;20661;-83
2022/06/17 03:08:06;;;;;;;15.18;11.10;;;14.30;99.90;;;;;;5035406;28;20043;-83
2022/06/17 03:10:35;;;;;;;13.48;10.90;;;14.30;99.90;;;;;;5051671;28;20048;-82
2022/06/17 03:13:05;;;;;;;13.75;10.80;;;14.40;99.90;;;;;;5035328;28;20036;-83
2022/06/17 03:15:31;;;;;;;20.15;8.70;;;14.40;99.90;;;;;;5053008;28;20044;-83
2022/06/17 03:17:57;;;;;;;11.82;8.60;;;14.40;99.90;;;;;;5051966;28;20035;-83
2022/06/17 03:20:34;;;;;;;14.95;11.68;;;14.30;99.90;;;;;;5052022;28;20039;-83
2022/06/17 03:23:15;;;;;;;15.90;12.27;;;14.40;99.90;;;;;;5052552;28;20039;-83
2022/06/17 03:26:08;;;;;;;15.43;8.45;;;14.40;99.90;;;;;;5050944;28;20589;-83
2022/06/17 03:28:45;;;;;;;12.95;7.65;;;14.30;99.90;;;;;;5052652;28;20063;-83
2022/06/17 03:31:43;;;;;;;15.23;11.50;;;14.30;99.90;;;;;;5050995;28;20044;-83
2022/06/17 03:34:16;;;;;;;13.20;9.02;;;14.40;99.90;;;;;;5051484;28;20410;-83
2022/06/17 03:37:04;;;;;;;13.77;9.15;;;14.40;99.90;;;;;;5055219;28;20544;-83
2022/06/17 03:39:36;;;;;;;13.65;9.68;;;14.30;99.90;;;;;;5055469;28;20048;-83
2022/06/17 03:42:15;;;;;;;12.30;8.45;;;14.30;99.90;;;;;;5038638;28;20036;-83
2022/06/17 03:44:55;;;;;;;13.75;10.00;;;14.40;99.90;;;;;;5055740;28;20044;-83
2022/06/17 03:47:37;;;;;;;14.43;11.60;;;14.40;99.90;;;;;;5038879;28;20091;-83
2022/06/17 03:50:08;;;;;;;15.45;9.38;;;14.50;99.90;;;;;;5054912;28;20029;-83
2022/06/17 03:52:51;;;;;;;13.48;9.85;;;14.50;99.90;;;;;;5039391;28;20044;-83
2022/06/17 03:55:19;;;;;;;15.10;11.40;;;14.60;99.90;;;;;;5038628;28;20033;-83
2022/06/17 03:57:49;;;;;;;16.67;11.93;;;14.60;99.90;;;;;;5055399;28;20509;-83
2022/06/17 04:00:37;;;;;;;16.75;9.63;;;14.70;99.90;;;;;;5055104;28;20067;-83
2022/06/17 04:03:04;;;;;;;14.95;11.50;;;14.70;99.90;;;;;;5055052;28;20040;-83
2022/06/17 04:05:31;;;;;;;12.88;8.90;;;14.70;99.90;;;;;;5055425;28;20044;-83
2022/06/17 04:07:56;;;;;;;14.90;12.48;;;14.70;99.90;;;;;;5036057;28;20036;-82
2022/06/17 04:10:26;;;;;;;16.23;9.75;;;14.80;99.90;;;;;;5053717;28;20044;-82
2022/06/17 04:12:52;;;;;;;15.98;12.27;;;14.80;99.90;;;;;;5050932;28;20099;-81
2022/06/17 04:15:39;;;;;;;17.13;12.10;;;14.80;99.90;;;;;;5052303;28;20068;-82
2022/06/17 04:18:05;;;;;;;14.32;12.00;;;14.90;99.90;;;;;;5053475;28;20064;-83
2022/06/17 04:20:54;;;;;;;14.88;12.18;;;14.90;99.90;;;;;;5053014;28;20064;-83
2022/06/17 04:23:33;;;;;;;18.15;13.30;;;15.00;99.90;;;;;;5050960;28;20079;-83
2022/06/17 04:26:04;;;;;;;16.10;12.93;;;15.00;99.90;;;;;;5036932;28;20048;-83
2022/06/17 04:28:48;;;;;;;14.25;10.00;;;15.10;99.90;;;;;;5037718;28;20089;-83
2022/06/17 04:31:18;;;;;;;14.90;11.75;;;15.10;99.90;;;;;;5036282;28;20580;-83
2022/06/17 04:33:52;;;;;;;15.65;13.25;;;15.20;99.90;;;;;;5037872;28;20041;-83
2022/06/17 04:36:21;;;;;;;15.27;12.73;;;15.30;99.90;;;;;;5054247;28;20044;-84
2022/06/17 04:39:05;;;;;;;15.20;13.63;;;15.30;99.90;;;;;;5053484;28;20040;-83
2022/06/17 04:41:35;;;;;;;17.83;14.38;;;15.40;99.90;;;;;;5054118;28;20047;-83
2022/06/17 04:44:04;;;;;;;15.27;11.00;;;15.50;99.90;;;;;;5036906;28;20040;-83
2022/06/17 04:46:38;;;;;;;18.73;11.43;;;15.50;99.90;;;;;;5052937;28;20036;-83
2022/06/17 04:49:05;;;;;;;16.23;14.43;;;15.50;99.90;;;;;;5053447;28;20093;-83
2022/06/17 04:51:34;;;;;;;17.60;14.95;;;15.50;99.90;;;;;;5036332;28;20044;-83
2022/06/17 04:53:59;;;;;;;17.40;14.60;;;15.60;99.90;;;;;;5054184;28;20047;-83
2022/06/17 04:56:37;;;;;;;17.30;12.77;;;15.60;99.90;;;;;;5053679;28;20036;-83
2022/06/17 04:59:16;;;;;;;17.55;14.77;;;15.70;99.90;;;;;;5054083;28;20040;-84
2022/06/17 05:01:43;;;;;;;16.90;15.07;;;15.70;99.90;;;;;;5053412;28;20087;-83
2022/06/17 05:04:09;;;;;;;16.52;14.73;;;15.70;99.90;;;;;;5053279;28;20045;-83
2022/06/17 05:06:35;;;;;;;17.10;14.43;;;15.80;99.90;;;;;;5037004;28;20402;-83
2022/06/17 05:09:29;;;;;;;16.35;13.20;;;15.90;99.90;;;;;;5052886;28;20039;-83
2022/06/17 05:12:16;;;;;;;16.65;14.95;;;15.80;99.90;;;;;;5053036;28;20357;-83
2022/06/17 05:14:50;;;;;;;18.38;16.45;;;15.90;99.90;;;;;;5053753;28;20029;-84
2022/06/17 05:17:15;;;;;;;17.00;15.20;;;15.90;99.90;;;;;;5052311;28;20032;-83
2022/06/17 05:19:41;;;;;;;17.88;15.45;;;16.00;99.90;;;;;;5053420;28;20047;-83
2022/06/17 05:22:32;;;;;;;17.70;15.88;;;16.00;99.90;;;;;;5036105;28;20063;-83
2022/06/17 05:24:59;;;;;;;15.60;12.95;;;16.00;99.90;;;;;;5053139;28;20052;-83
2022/06/17 05:27:24;;;;;;;16.88;15.13;;;16.00;99.90;;;;;;5053644;28;20090;-83
2022/06/17 05:29:50;;;;;;;19.98;14.93;;;16.10;99.90;;;;;;5035063;28;20048;-83
2022/06/17 05:32:19;;;;;;;16.23;14.52;;;16.20;99.90;;;;;;5036504;28;20037;-83
2022/06/17 05:34:46;;;;;;;17.40;14.88;;;16.20;99.90;;;;;;5036106;28;20085;-84
2022/06/17 05:37:12;;;;;;;18.00;15.02;;;16.20;99.90;;;;;;5036015;28;20048;-83
2022/06/17 05:39:38;;;;;;;16.17;14.30;;;16.30;99.90;;;;;;5035948;28;20118;-83
2022/06/17 05:42:05;;;;;;;18.25;14.65;;;16.40;99.90;;;;;;5052762;28;20072;-84
2022/06/17 05:44:31;;;;;;;17.55;15.18;;;16.40;99.90;;;;;;5034577;28;20037;-83
2022/06/17 05:46:57;;;;;;;17.20;14.77;;;16.50;99.90;;;;;;5053023;28;20452;-83
2022/06/17 05:49:22;;;;;;;18.58;12.95;;;16.60;99.90;;;;;;5053068;28;20508;-83
2022/06/17 05:51:48;;;;;;;16.63;14.38;;;16.50;99.90;;;;;;5051996;28;20097;-83
2022/06/17 05:54:13;;;;;;;17.42;15.57;;;16.60;99.90;;;;;;5053464;28;20139;-83
2022/06/17 05:56:39;;;;;;;17.45;15.65;;;16.70;99.90;;;;;;5053116;28;20036;-83
2022/06/17 05:59:05;;;;;;;16.27;14.57;;;16.70;99.90;;;;;;5032672;28;20025;-83
2022/06/17 06:01:31;;;;;;;16.42;13.85;;;16.80;99.90;;;;;;5073772;28;20417;-83
2022/06/17 06:03:56;;;;;;;16.23;14.07;;;16.80;99.90;;;;;;5042280;28;20501;-82
2022/06/17 06:06:22;;;;;;;18.15;14.65;;;16.80;99.90;;;;;;5052900;28;20061;-83
2022/06/17 06:08:48;;;;;;;16.63;12.65;;;16.90;99.90;;;;;;5052861;28;20390;-83
2022/06/17 06:11:13;;;;;;;17.80;14.70;;;16.90;99.90;;;;;;5048896;28;20048;-83
2022/06/17 06:13:39;;;;;;;18.35;13.93;;;16.90;99.90;;;;;;5052708;28;20032;-83
2022/06/17 06:16:05;;;;;;;19.17;15.10;;;17.00;99.90;;;;;;5052285;28;20036;-83
2022/06/17 06:18:35;;;;;;;15.75;14.05;;;17.00;99.90;;;;;;5051177;28;20086;-83
2022/06/17 06:21:04;;;;;;;16.70;14.63;;;17.10;99.90;;;;;;5051880;28;20055;-83
2022/06/17 06:23:31;;;;;;;16.92;14.95;;;17.10;99.90;;;;;;5050972;28;20051;-83
2022/06/17 06:25:57;;;;;;;18.38;14.30;;;17.20;99.90;;;;;;5035708;28;20098;-84
2022/06/17 06:28:25;;;;;;;16.35;13.70;;;17.20;99.90;;;;;;5035711;28;20539;-84
2022/06/17 06:31:07;;;;;;;17.98;14.77;;;17.30;99.90;;;;;;5051291;28;20052;-83
2022/06/17 06:33:33;;;;;;;14.88;12.68;;;17.30;99.90;;;;;;5035912;28;20374;-82
2022/06/17 06:35:59;;;;;;;15.60;13.68;;;17.40;99.90;;;;;;5051937;28;20032;-83
2022/06/17 06:38:25;;;;;;;17.90;12.93;;;17.40;99.90;;;;;;5051403;28;20068;-83
2022/06/17 06:40:51;;;;;;;15.75;11.95;;;17.40;99.90;;;;;;5035168;28;20064;-83
2022/06/17 06:43:21;;;;;;;13.80;12.02;;;17.50;99.90;;;;;;5052429;28;20080;-83
2022/06/17 06:45:52;;;;;;;14.75;11.30;;;17.50;99.90;;;;;;5042923;28;20119;-84
2022/06/17 06:48:20;;;;;;;14.55;10.55;;;17.60;99.90;;;;;;5025723;28;20048;-84
2022/06/17 06:50:45;;;;;;;13.18;9.93;;;17.60;99.90;;;;;;5041986;28;20041;-84
2022/06/17 06:53:11;;;;;;;14.63;11.10;;;17.60;99.90;;;;;;5033566;28;20044;-84
2022/06/17 06:55:38;;;;;;;14.63;10.63;;;17.70;99.90;;;;;;5042166;28;20412;-84
2022/06/17 06:58:11;;;;;;;12.80;10.25;;;17.80;99.90;;;;;;5056963;28;20032;-83
2022/06/17 07:00:45;;;;;;;13.73;10.52;;;17.90;99.90;;;;;;5033933;28;20127;-83
2022/06/17 07:03:11;;;;;;;15.27;10.40;;;17.90;99.90;;;;;;5028262;28;20040;-84
2022/06/17 07:05:40;;;;;;;13.77;10.68;;;18.10;99.90;;;;;;5046867;28;20401;-84
2022/06/17 07:08:06;;;;;;;12.48;9.82;;;18.20;99.90;;;;;;5044455;28;20065;-84
2022/06/17 07:10:33;;;;;;;17.88;9.65;;;18.30;99.90;;;;;;5029176;28;20509;-84
2022/06/17 07:13:00;;;;;;;23.70;9.88;;;18.40;99.90;;;;;;5045148;28;20063;-84
2022/06/17 07:15:28;;;;;;;13.75;9.00;;;18.60;99.90;;;;;;5064739;28;20033;-84
2022/06/17 07:17:59;;;;;;;15.27;7.97;;;18.70;99.90;;;;;;5044055;28;20043;-84
2022/06/17 07:20:27;;;;;;;11.20;7.90;;;18.80;99.90;;;;;;5055714;28;20150;-84
2022/06/17 07:22:53;;;;;;;13.00;8.00;;;18.90;99.90;;;;;;5054639;28;20099;-84
2022/06/17 07:25:20;;;;;;;17.70;8.55;;;19.00;99.90;;;;;;5055706;28;20054;-84
2022/06/17 07:27:46;;;;;;;15.32;8.35;;;19.10;99.90;;;;;;5055145;28;20032;-84
2022/06/17 07:30:21;;;;;;;13.50;7.80;;;19.10;99.90;;;;;;5053511;28;20079;-84
2022/06/17 07:32:47;;;;;;;11.10;7.82;;;19.20;99.90;;;;;;5046367;28;20067;-83
2022/06/17 07:35:14;;;;;;;11.38;7.82;;;19.20;99.90;;;;;;5052288;28;20102;-84
2022/06/17 07:40:27;;;;;;;13.98;7.25;;;19.40;99.90;;;;;;5051651;28;20040;-84
2022/06/17 07:42:53;;;;;;;14.35;7.60;;;19.50;99.90;;;;;;5038335;28;20044;-84
2022/06/17 07:45:20;;;;;;;13.10;7.55;;;19.50;99.90;;;;;;5045844;28;20041;-84
2022/06/17 07:47:48;;;;;;;12.95;6.82;;;19.60;99.90;;;;;;5052239;28;20028;-83
2022/06/17 07:50:18;;;;;;;10.63;6.88;;;19.60;99.90;;;;;;5046125;28;20072;-84
2022/06/17 07:52:44;;;;;;;14.38;7.53;;;19.70;99.90;;;;;;5046467;28;20036;-84
2022/06/17 07:55:09;;;;;;;12.07;7.00;;;19.90;99.90;;;;;;5046235;28;20033;-84
2022/06/17 07:57:35;;;;;;;18.33;6.88;;;20.00;99.90;;;;;;5019262;28;20568;-84
2022/06/17 08:00:03;;;;;;;11.13;6.72;;;20.00;99.90;;;;;;5046759;28;20432;-84
2022/06/17 08:02:28;;;;;;;60.05;10.00;;;20.10;99.90;;;;;;5038097;28;20036;-84
2022/06/17 08:04:54;;;;;;;13.13;6.20;;;20.20;99.90;;;;;;5053489;28;20044;-83
2022/06/17 08:07:20;;;;;;;12.18;5.85;;;20.30;99.90;;;;;;5054923;28;20127;-83
2022/06/17 08:09:45;;;;;;;13.48;6.28;;;20.40;99.90;;;;;;5054474;28;20667;-84
2022/06/17 08:12:13;;;;;;;10.32;5.20;;;20.60;99.90;;;;;;5052818;28;20457;-83
2022/06/17 08:14:44;;;;;;;11.85;6.20;;;20.70;99.90;;;;;;5055077;28;20045;-84
2022/06/17 08:17:11;;;;;;;10.98;5.88;;;20.80;99.90;;;;;;5053951;28;20447;-83
2022/06/17 08:19:37;;;;;;;10.80;5.90;;;20.80;99.90;;;;;;5049562;28;20086;-84
2022/06/17 08:22:05;;;;;;;10.90;5.93;;;20.90;99.90;;;;;;5049480;28;20044;-85
2022/06/17 08:24:31;;;;;;;10.55;5.43;;;20.90;99.90;;;;;;5053410;28;20415;-85
2022/06/17 08:26:57;;;;;;;10.27;5.07;;;21.00;99.90;;;;;;5051963;28;20048;-84
2022/06/17 08:29:23;;;;;;;9.15;4.55;;;21.10;97.80;;;;;;5053668;28;20299;-84
2022/06/17 08:31:48;;;;;;;9.13;5.00;;;21.10;97.90;;;;;;5056247;28;20041;-84
2022/06/17 08:34:14;;;;;;;10.05;4.70;;;21.20;97.00;;;;;;5056431;28;20037;-83
2022/06/17 08:36:40;;;;;;;9.38;4.88;;;21.30;97.50;;;;;;5050768;28;20040;-85
2022/06/17 08:39:09;;;;;;;8.52;4.57;;;21.40;98.00;;;;;;5046265;28;20039;-85
2022/06/17 08:41:58;;;;;;;9.18;4.53;;;21.50;97.70;;;;;;5047681;28;20097;-85
2022/06/17 08:44:46;;;;;;;9.20;4.60;;;21.60;98.70;;;;;;5046281;28;20064;-84
2022/06/17 08:47:21;;;;;;;10.88;5.20;;;21.60;97.60;;;;;;5037202;28;20045;-85
2022/06/17 08:50:17;;;;;;;9.40;5.05;;;21.70;98.90;;;;;;5052600;28;20498;-84
2022/06/17 08:53:21;;;;;;;9.20;4.80;;;21.70;94.80;;;;;;5070583;28;20032;-85
2022/06/17 08:56:02;;;;;;;10.30;5.00;;;21.70;96.80;;;;;;5054863;28;20037;-85
2022/06/17 08:58:42;;;;;;;9.52;5.40;;;21.80;97.80;;;;;;5032708;28;20403;-84
2022/06/17 09:01:22;;;;;;;13.52;5.13;;;21.90;96.90;;;;;;5042362;28;20430;-84
2022/06/17 09:04:18;;;;;;;10.70;5.00;;;21.90;96.30;;;;;;5053772;28;20040;-85
2022/06/17 09:07:15;;;;;;;15.27;5.57;;;22.00;98.10;;;;;;5036047;28;20441;-84
2022/06/17 09:10:05;;;;;;;11.27;4.80;;;22.10;95.60;;;;;;5036560;28;20033;-85
2022/06/17 09:12:58;;;;;;;8.98;5.20;;;22.10;94.40;;;;;;5052789;28;20047;-84
2022/06/17 09:15:43;;;;;;;8.60;4.93;;;22.20;94.60;;;;;;5053586;28;20397;-85
2022/06/17 09:18:28;;;;;;;11.30;5.30;;;22.20;92.50;;;;;;5051059;28;21160;-85
2022/06/17 09:20:59;;;;;;;10.85;4.82;;;22.20;92.50;;;;;;5050445;28;20094;-84
2022/06/17 09:23:30;;;;;;;9.52;4.70;;;22.20;92.00;;;;;;5063012;28;20485;-85
2022/06/17 09:25:58;;;;;;;9.43;4.55;;;22.20;91.70;;;;;;5052825;28;20040;-84
2022/06/17 09:28:38;;;;;;;10.63;4.72;;;22.30;94.90;;;;;;5035901;28;20128;-85
2022/06/17 09:31:10;;;;;;;9.05;4.40;;;22.30;93.80;;;;;;5065699;28;20063;-85
2022/06/17 09:34:02;;;;;;;8.75;4.53;;;22.30;93.80;;;;;;5051916;28;20040;-85
2022/06/17 09:36:36;;;;;;;9.98;4.10;;;22.40;91.20;;;;;;5059827;28;20083;-85
2022/06/17 09:39:07;;;;;;;10.18;3.70;;;22.40;93.60;;;;;;5034403;28;20043;-85
2022/06/17 09:41:44;;;;;;;10.63;3.70;;;22.40;97.40;;;;;;5051018;28;20097;-84
2022/06/17 09:44:12;;;;;;;11.55;4.20;;;22.50;96.40;;;;;;5052077;28;20036;-84
2022/06/17 09:47:02;;;;;;;7.65;3.88;;;22.60;94.60;;;;;;5052841;28;20119;-84
2022/06/17 09:49:41;;;;;;;11.52;4.22;;;22.60;92.10;;;;;;5036131;28;20040;-84
2022/06/17 09:52:20;;;;;;;10.73;4.57;;;22.70;97.30;;;;;;5049385;28;20063;-85
2022/06/17 09:54:57;;;;;;;9.27;4.10;;;22.80;99.20;;;;;;5059312;28;20370;-85
2022/06/17 09:57:29;;;;;;;8.48;3.67;;;22.80;94.10;;;;;;5038432;28;20037;-85
2022/06/17 10:00:05;;;;;;;8.98;4.07;;;22.80;94.00;;;;;;5052060;28;20047;-85
2022/06/17 10:03:06;;;;;;;9.40;4.20;;;22.90;90.30;;;;;;5036023;28;20115;-85
2022/06/17 10:05:41;;;;;;;9.68;4.38;;;23.00;91.30;;;;;;5052097;28;20041;-84
2022/06/17 10:08:19;;;;;;;10.75;4.75;;;23.00;93.50;;;;;;5061265;28;20028;-84
2022/06/17 10:11:11;;;;;;;9.13;4.38;;;23.10;91.20;;;;;;5026419;28;20044;-84
2022/06/17 10:13:52;;;;;;;9.23;4.70;;;23.20;90.00;;;;;;5035677;28;20037;-84
2022/06/17 10:19:41;;;;;;;10.85;4.95;;;23.30;83.10;;;;;;5041609;28;20040;-84
2022/06/17 10:22:16;;;;;;;14.73;4.63;;;23.30;84.20;;;;;;5043141;28;20041;-84
2022/06/17 10:25:28;;;;;;;11.15;5.10;;;23.40;83.70;;;;;;5045448;28;21724;-85
2022/06/17 10:28:15;;;;;;;10.40;4.30;;;23.40;76.50;;;;;;5044301;28;20052;-84
2022/06/17 10:30:57;;;;;;;8.95;4.15;;;23.50;83.00;;;;;;5060997;28;20040;-85
2022/06/17 10:33:24;;;;;;;9.10;4.55;;;23.50;86.70;;;;;;5037561;28;20041;-84
2022/06/17 10:35:50;;;;;;;9.57;3.90;;;23.60;82.30;;;;;;5052382;28;20086;-84
2022/06/17 10:38:28;;;;;;;12.20;4.65;;;23.60;85.10;;;;;;5052208;28;20518;-84
2022/06/17 10:40:53;;;;;;;8.55;4.25;;;23.70;90.50;;;;;;5053297;28;20055;-85
2022/06/17 10:43:30;;;;;;;11.30;4.60;;;23.80;86.20;;;;;;5052873;28;20040;-84
2022/06/17 10:45:55;;;;;;;8.98;4.28;;;23.90;85.70;;;;;;5054877;28;20036;-82
2022/06/17 10:48:33;;;;;;;8.57;4.38;;;23.90;87.70;;;;;;5042523;28;20036;-83
2022/06/17 10:51:02;;;;;;;10.05;4.70;;;23.90;82.10;;;;;;5055458;28;20043;-83
2022/06/17 10:53:44;;;;;;;8.60;4.68;;;24.00;81.20;;;;;;5046937;28;20487;-83
2022/06/17 10:56:24;;;;;;;9.32;4.50;;;24.00;76.40;;;;;;5045223;28;20086;-83
2022/06/17 10:58:57;;;;;;;10.98;4.57;;;24.00;77.60;;;;;;5054413;28;20040;-84
2022/06/17 11:01:24;;;;;;;17.25;4.93;;;24.00;77.20;;;;;;5038504;28;20044;-84
2022/06/17 11:04:08;;;;;;;8.30;3.83;;;24.00;81.30;;;;;;5049188;28;20052;-85
2022/06/17 11:06:42;;;;;;;8.50;4.10;;;24.00;87.10;;;;;;5052535;28;20047;-84
2022/06/17 11:09:19;;;;;;;8.77;3.85;;;24.10;81.10;;;;;;5052743;28;20118;-84
2022/06/17 11:12:03;;;;;;;10.80;4.10;;;24.10;75.00;;;;;;5055476;28;20489;-83
2022/06/17 11:14:43;;;;;;;8.50;4.13;;;24.10;71.10;;;;;;5037020;28;20080;-84
2022/06/17 11:17:21;;;;;;;9.00;3.83;;;24.20;78.10;;;;;;5019289;28;20041;-84
2022/06/17 11:19:53;;;;;;;9.75;3.88;;;24.20;72.50;;;;;;5042518;28;20039;-84
2022/06/17 11:22:34;;;;;;;;;;;24.20;71.90;;;;;;5039012;28;20036;-85
2022/06/17 11:25:05;;;;;;;8.57;3.83;;;24.10;71.10;;;;;;5054982;28;19916;-84
2022/06/17 11:27:36;;;;;;;8.68;3.85;;;24.10;74.90;;;;;;5035816;28;20043;-84
2022/06/17 11:30:20;;;;;;;9.38;4.03;;;24.20;75.50;;;;;;5036266;28;20048;-84
2022/06/17 11:32:46;;;;;;;8.68;3.90;;;24.20;72.70;;;;;;5054132;28;20037;-84
2022/06/17 11:35:25;;;;;;;9.52;4.47;;;24.20;72.20;;;;;;5055353;28;20637;-84
2022/06/17 11:37:51;;;;;;;8.55;3.58;;;24.20;73.40;;;;;;5055618;28;20036;-84
2022/06/17 11:40:21;;;;;;;11.48;4.07;;;24.20;71.90;;;;;;5054614;28;20086;-84
2022/06/17 11:43:03;;;;;;;9.98;3.35;;;24.20;71.20;;;;;;5055681;28;20044;-85
2022/06/17 11:45:31;;;;;;;8.70;3.20;;;24.20;67.50;;;;;;5050697;28;20532;-84
2022/06/17 11:48:01;;;;;;;9.85;3.30;;;24.20;65.30;;;;;;5050030;28;20148;-84
2022/06/17 11:50:37;;;;;;;10.65;3.65;;;24.30;70.90;;;;;;5054137;28;20409;-85
2022/06/17 11:53:11;;;;;;;9.25;3.40;;;24.40;69.80;;;;;;5054852;28;20048;-84
2022/06/17 11:55:55;;;;;;;9.57;3.58;;;24.50;65.90;;;;;;5053908;28;20029;-85
2022/06/17 11:58:21;;;;;;;11.07;3.63;;;24.70;71.60;;;;;;5053991;28;20044;-84
2022/06/17 12:00:49;;;;;;;17.33;4.15;;;24.80;68.90;;;;;;5038039;28;20049;-84
2022/06/17 12:03:32;;;;;;;10.02;3.30;;;25.00;68.10;;;;;;5053467;28;20033;-85
2022/06/17 12:06:00;;;;;;;9.77;3.75;;;25.10;68.20;;;;;;5054557;28;20119;-85
2022/06/17 12:08:37;;;;;;;7.93;3.40;;;25.30;65.80;;;;;;5037577;28;20488;-85
2022/06/17 12:11:16;;;;;;;10.95;3.85;;;25.40;63.90;;;;;;5054172;28;20147;-85
2022/06/17 12:13:49;;;;;;;8.07;3.33;;;25.40;65.60;;;;;;5037786;28;20612;-85
2022/06/17 12:16:22;;;;;;;9.23;3.63;;;25.40;63.20;;;;;;5054594;28;20497;-85
2022/06/17 12:18:53;;;;;;;8.68;3.63;;;25.50;63.00;;;;;;5038073;28;20041;-85
2022/06/17 12:21:47;;;;;;;8.82;3.55;;;25.50;63.30;;;;;;5053529;28;20058;-85
2022/06/17 12:24:39;;;;;;;8.50;3.83;;;25.70;63.20;;;;;;5052474;28;20052;-85
2022/06/17 12:27:14;;;;;;;10.77;4.53;;;25.70;61.70;;;;;;5052216;28;20078;-85
2022/06/17 12:30:21;;;;;;;8.23;3.63;;;25.70;62.00;;;;;;5052526;28;20045;-85
2022/06/17 12:33:01;;;;;;;9.18;3.90;;;25.80;68.40;;;;;;4975711;28;20080;-85
2022/06/17 12:35:37;;;;;;;8.65;3.88;;;25.80;64.30;;;;;;4994272;28;20054;-85
2022/06/17 12:38:12;;;;;;;11.52;3.75;;;25.90;61.90;;;;;;4993046;28;20054;-85
2022/06/17 12:40:45;;;;;;;8.52;4.00;;;26.10;59.60;;;;;;5009758;28;20134;-85
2022/06/17 12:43:45;;;;;;;8.73;3.30;;;26.10;58.90;;;;;;4992789;28;20124;-85
2022/06/17 12:46:43;;;;;;;10.18;3.78;;;26.10;60.20;;;;;;4975941;28;20045;-85
2022/06/17 12:55:29;;;;;;;9.10;3.63;;;26.60;58.00;;;;;;4934914;29;20044;-85
2022/06/17 12:58:00;;;;;;;10.63;3.30;;;26.60;62.50;;;;;;4919528;29;20519;-85
2022/06/17 13:00:40;;;;;;;8.95;4.10;;;26.80;60.70;;;;;;4935288;29;20116;-85
2022/06/17 13:03:34;;;;;;;8.80;3.60;;;26.80;58.70;;;;;;4934587;29;20728;-85
2022/06/17 13:06:20;;;;;;;9.90;3.72;;;26.90;57.50;;;;;;4944783;28;20053;-85
2022/06/17 13:09:16;;;;;;;9.68;3.80;;;27.00;58.90;;;;;;4983448;28;20557;-85
2022/06/17 13:12:02;;;;;;;9.27;3.90;;;27.10;57.50;;;;;;4993421;28;20042;-85
2022/06/17 13:14:42;;;;;;;9.35;3.28;;;27.00;56.90;;;;;;4993614;28;20041;-85
2022/06/17 13:17:24;;;;;;;9.38;3.97;;;27.00;55.60;;;;;;4973933;28;20451;-85
2022/06/17 13:20:01;;;;;;;8.38;3.03;;;27.00;54.50;;;;;;4990295;28;20093;-85